sensor_id;sensor_type;location;lat;lon;timestamp;P1;durP1;ratioP1;P2;durP2;ratioP2
52744;SDS011;38637;49.984;20.426;2022-12-29T00:01:23;10.20;;;6.17;;
52744;SDS011;38637;49.984;20.426;2022-12-29T00:03:48;13.03;;;6.03;;
52744;SDS011;38637;49.984;20.426;2022-12-29T00:06:14;6.90;;;5.00;;
52744;SDS011;38637;49.984;20.426;2022-12-29T00:08:39;8.70;;;5.00;;
52744;SDS011;38637;49.984;20.426;2022-12-29T00:11:05;8.20;;;5.53;;
52744;SDS011;38637;49.984;20.426;2022-12-29T00:13:32;9.77;;;5.97;;
52744;SDS011;38637;49.984;20.426;2022-12-29T00:16:16;9.98;;;6.10;;
52744;SDS011;38637;49.984;20.426;2022-12-29T00:18:41;8.87;;;5.53;;
52744;SDS011;38637;49.984;20.426;2022-12-29T00:21:07;11.43;;;5.87;;
52744;SDS011;38637;49.984;20.426;2022-12-29T00:23:54;9.23;;;5.38;;
52744;SDS011;38637;49.984;20.426;2022-12-29T00:26:55;8.35;;;5.25;;
52744;SDS011;38637;49.984;20.426;2022-12-29T00:29:47;8.95;;;4.97;;
52744;SDS011;38637;49.984;20.426;2022-12-29T00:32:32;8.18;;;5.22;;
52744;SDS011;38637;49.984;20.426;2022-12-29T00:35:20;9.07;;;4.68;;
52744;SDS011;38637;49.984;20.426;2022-12-29T00:37:59;9.05;;;5.30;;
52744;SDS011;38637;49.984;20.426;2022-12-29T00:40:47;7.47;;;4.82;;
52744;SDS011;38637;49.984;20.426;2022-12-29T00:43:30;10.13;;;5.57;;
52744;SDS011;38637;49.984;20.426;2022-12-29T00:46:14;7.75;;;5.35;;
52744;SDS011;38637;49.984;20.426;2022-12-29T00:48:39;8.43;;;4.70;;
52744;SDS011;38637;49.984;20.426;2022-12-29T00:51:23;7.03;;;4.72;;
52744;SDS011;38637;49.984;20.426;2022-12-29T00:53:49;7.77;;;5.20;;
52744;SDS011;38637;49.984;20.426;2022-12-29T00:56:14;7.30;;;4.50;;
52744;SDS011;38637;49.984;20.426;2022-12-29T00:58:39;6.50;;;4.37;;
52744;SDS011;38637;49.984;20.426;2022-12-29T01:01:05;6.30;;;4.23;;
52744;SDS011;38637;49.984;20.426;2022-12-29T01:03:32;5.90;;;3.97;;
52744;SDS011;38637;49.984;20.426;2022-12-29T01:06:08;8.88;;;5.22;;
52744;SDS011;38637;49.984;20.426;2022-12-29T01:08:35;9.57;;;4.40;;
52744;SDS011;38637;49.984;20.426;2022-12-29T01:11:04;6.57;;;4.40;;
52744;SDS011;38637;49.984;20.426;2022-12-29T01:13:31;8.88;;;4.75;;
52744;SDS011;38637;49.984;20.426;2022-12-29T01:15:57;8.43;;;4.73;;
52744;SDS011;38637;49.984;20.426;2022-12-29T01:18:23;6.73;;;4.53;;
52744;SDS011;38637;49.984;20.426;2022-12-29T01:20:49;8.77;;;4.95;;
52744;SDS011;38637;49.984;20.426;2022-12-29T01:23:15;8.97;;;4.83;;
52744;SDS011;38637;49.984;20.426;2022-12-29T01:25:40;6.93;;;4.97;;
52744;SDS011;38637;49.984;20.426;2022-12-29T01:28:06;8.10;;;5.20;;
52744;SDS011;38637;49.984;20.426;2022-12-29T01:30:33;9.50;;;5.38;;
52744;SDS011;38637;49.984;20.426;2022-12-29T01:32:59;9.90;;;5.70;;
52744;SDS011;38637;49.984;20.426;2022-12-29T01:35:24;9.10;;;3.77;;
52744;SDS011;38637;49.984;20.426;2022-12-29T01:37:49;6.83;;;3.67;;
52744;SDS011;38637;49.984;20.426;2022-12-29T01:40:15;4.57;;;3.07;;
52744;SDS011;38637;49.984;20.426;2022-12-29T01:42:40;5.43;;;2.77;;
52744;SDS011;38637;49.984;20.426;2022-12-29T01:45:10;3.90;;;2.43;;
52744;SDS011;38637;49.984;20.426;2022-12-29T01:47:41;4.75;;;2.85;;
52744;SDS011;38637;49.984;20.426;2022-12-29T01:50:30;4.75;;;3.25;;
52744;SDS011;38637;49.984;20.426;2022-12-29T01:52:59;4.22;;;2.63;;
52744;SDS011;38637;49.984;20.426;2022-12-29T01:55:27;5.70;;;2.90;;
52744;SDS011;38637;49.984;20.426;2022-12-29T01:57:56;5.03;;;3.08;;
52744;SDS011;38637;49.984;20.426;2022-12-29T02:00:26;5.07;;;2.65;;
52744;SDS011;38637;49.984;20.426;2022-12-29T02:02:51;4.93;;;3.40;;
52744;SDS011;38637;49.984;20.426;2022-12-29T02:05:20;9.18;;;4.20;;
52744;SDS011;38637;49.984;20.426;2022-12-29T02:07:50;6.45;;;3.63;;
52744;SDS011;38637;49.984;20.426;2022-12-29T02:10:17;3.67;;;3.05;;
52744;SDS011;38637;49.984;20.426;2022-12-29T02:12:45;5.35;;;3.45;;
52744;SDS011;38637;49.984;20.426;2022-12-29T02:15:11;6.35;;;3.63;;
52744;SDS011;38637;49.984;20.426;2022-12-29T02:17:56;5.33;;;3.97;;
52744;SDS011;38637;49.984;20.426;2022-12-29T02:23:41;7.80;;;3.80;;
52744;SDS011;38637;49.984;20.426;2022-12-29T02:26:27;5.53;;;3.42;;
52744;SDS011;38637;49.984;20.426;2022-12-29T02:29:17;5.20;;;3.50;;
52744;SDS011;38637;49.984;20.426;2022-12-29T02:32:01;5.43;;;3.63;;
52744;SDS011;38637;49.984;20.426;2022-12-29T02:35:04;7.10;;;3.58;;
52744;SDS011;38637;49.984;20.426;2022-12-29T02:40:12;7.32;;;3.88;;
52744;SDS011;38637;49.984;20.426;2022-12-29T02:43:04;5.78;;;3.58;;
52744;SDS011;38637;49.984;20.426;2022-12-29T02:45:41;5.60;;;3.30;;
52744;SDS011;38637;49.984;20.426;2022-12-29T02:51:15;5.63;;;3.22;;
52744;SDS011;38637;49.984;20.426;2022-12-29T02:53:42;3.78;;;2.67;;
52744;SDS011;38637;49.984;20.426;2022-12-29T02:56:27;6.05;;;3.15;;
52744;SDS011;38637;49.984;20.426;2022-12-29T02:58:52;5.37;;;3.40;;
52744;SDS011;38637;49.984;20.426;2022-12-29T03:04:43;3.95;;;2.40;;
52744;SDS011;38637;49.984;20.426;2022-12-29T03:13:16;4.68;;;3.10;;
52744;SDS011;38637;49.984;20.426;2022-12-29T03:16:24;4.55;;;3.35;;
52744;SDS011;38637;49.984;20.426;2022-12-29T03:21:37;5.63;;;3.30;;
52744;SDS011;38637;49.984;20.426;2022-12-29T03:24:29;4.15;;;2.85;;
52744;SDS011;38637;49.984;20.426;2022-12-29T03:27:01;4.45;;;2.45;;
52744;SDS011;38637;49.984;20.426;2022-12-29T03:29:30;4.50;;;2.83;;
52744;SDS011;38637;49.984;20.426;2022-12-29T03:32:01;5.10;;;3.20;;
52744;SDS011;38637;49.984;20.426;2022-12-29T03:34:29;4.32;;;3.00;;
52744;SDS011;38637;49.984;20.426;2022-12-29T03:39:27;4.57;;;2.95;;
52744;SDS011;38637;49.984;20.426;2022-12-29T03:41:58;6.07;;;3.10;;
52744;SDS011;38637;49.984;20.426;2022-12-29T03:44:31;4.57;;;2.83;;
52744;SDS011;38637;49.984;20.426;2022-12-29T03:46:58;4.22;;;2.40;;
52744;SDS011;38637;49.984;20.426;2022-12-29T03:49:23;4.20;;;2.40;;
52744;SDS011;38637;49.984;20.426;2022-12-29T03:51:48;4.27;;;2.40;;
52744;SDS011;38637;49.984;20.426;2022-12-29T03:54:13;6.50;;;3.90;;
52744;SDS011;38637;49.984;20.426;2022-12-29T03:56:39;8.70;;;4.77;;
52744;SDS011;38637;49.984;20.426;2022-12-29T03:59:04;6.23;;;4.20;;
52744;SDS011;38637;49.984;20.426;2022-12-29T04:01:29;5.43;;;3.77;;
52744;SDS011;38637;49.984;20.426;2022-12-29T04:03:54;5.10;;;3.20;;
52744;SDS011;38637;49.984;20.426;2022-12-29T04:06:20;6.17;;;3.17;;
52744;SDS011;38637;49.984;20.426;2022-12-29T04:08:45;5.53;;;4.23;;
52744;SDS011;38637;49.984;20.426;2022-12-29T04:11:10;9.90;;;6.20;;
52744;SDS011;38637;49.984;20.426;2022-12-29T04:13:36;7.60;;;4.37;;
52744;SDS011;38637;49.984;20.426;2022-12-29T04:16:02;5.85;;;3.30;;
52744;SDS011;38637;49.984;20.426;2022-12-29T04:18:27;3.60;;;2.53;;
52744;SDS011;38637;49.984;20.426;2022-12-29T04:20:53;5.13;;;2.70;;
52744;SDS011;38637;49.984;20.426;2022-12-29T04:23:24;3.05;;;2.50;;
52744;SDS011;38637;49.984;20.426;2022-12-29T04:25:49;4.47;;;3.03;;
52744;SDS011;38637;49.984;20.426;2022-12-29T04:28:15;3.77;;;2.40;;
52744;SDS011;38637;49.984;20.426;2022-12-29T04:30:42;3.00;;;2.28;;
52744;SDS011;38637;49.984;20.426;2022-12-29T04:33:08;3.28;;;2.40;;
52744;SDS011;38637;49.984;20.426;2022-12-29T04:35:33;3.47;;;2.57;;
52744;SDS011;38637;49.984;20.426;2022-12-29T04:37:58;3.53;;;2.07;;
52744;SDS011;38637;49.984;20.426;2022-12-29T04:40:24;4.83;;;3.37;;
52744;SDS011;38637;49.984;20.426;2022-12-29T04:42:49;6.27;;;2.90;;
52744;SDS011;38637;49.984;20.426;2022-12-29T04:45:15;6.78;;;3.22;;
52744;SDS011;38637;49.984;20.426;2022-12-29T04:47:40;6.73;;;3.60;;
52744;SDS011;38637;49.984;20.426;2022-12-29T04:50:06;4.20;;;2.87;;
52744;SDS011;38637;49.984;20.426;2022-12-29T04:52:32;3.40;;;2.33;;
52744;SDS011;38637;49.984;20.426;2022-12-29T04:54:57;4.50;;;2.80;;
52744;SDS011;38637;49.984;20.426;2022-12-29T04:57:22;5.40;;;2.93;;
52744;SDS011;38637;49.984;20.426;2022-12-29T04:59:48;3.70;;;2.30;;
52744;SDS011;38637;49.984;20.426;2022-12-29T05:02:13;5.13;;;2.40;;
52744;SDS011;38637;49.984;20.426;2022-12-29T05:04:38;3.90;;;2.40;;
52744;SDS011;38637;49.984;20.426;2022-12-29T05:07:03;3.47;;;2.13;;
52744;SDS011;38637;49.984;20.426;2022-12-29T05:09:29;6.07;;;2.77;;
52744;SDS011;38637;49.984;20.426;2022-12-29T05:11:54;4.80;;;2.80;;
52744;SDS011;38637;49.984;20.426;2022-12-29T05:14:20;3.77;;;2.90;;
52744;SDS011;38637;49.984;20.426;2022-12-29T05:16:45;4.87;;;2.67;;
52744;SDS011;38637;49.984;20.426;2022-12-29T05:19:10;5.57;;;3.30;;
52744;SDS011;38637;49.984;20.426;2022-12-29T05:21:36;3.60;;;2.50;;
52744;SDS011;38637;49.984;20.426;2022-12-29T05:24:01;3.63;;;2.90;;
52744;SDS011;38637;49.984;20.426;2022-12-29T05:26:26;4.57;;;3.00;;
52744;SDS011;38637;49.984;20.426;2022-12-29T05:28:52;3.70;;;2.90;;
52744;SDS011;38637;49.984;20.426;2022-12-29T05:31:17;4.83;;;2.83;;
52744;SDS011;38637;49.984;20.426;2022-12-29T05:33:43;5.63;;;3.30;;
52744;SDS011;38637;49.984;20.426;2022-12-29T05:36:08;5.77;;;3.43;;
52744;SDS011;38637;49.984;20.426;2022-12-29T05:38:34;6.33;;;3.30;;
52744;SDS011;38637;49.984;20.426;2022-12-29T05:41:00;5.15;;;3.20;;
52744;SDS011;38637;49.984;20.426;2022-12-29T05:43:26;4.20;;;2.77;;
52744;SDS011;38637;49.984;20.426;2022-12-29T05:45:51;6.00;;;3.60;;
52744;SDS011;38637;49.984;20.426;2022-12-29T05:48:17;5.73;;;3.47;;
52744;SDS011;38637;49.984;20.426;2022-12-29T05:50:42;10.57;;;4.00;;
52744;SDS011;38637;49.984;20.426;2022-12-29T05:53:08;8.77;;;4.20;;
52744;SDS011;38637;49.984;20.426;2022-12-29T05:55:33;6.67;;;3.57;;
52744;SDS011;38637;49.984;20.426;2022-12-29T05:57:59;4.72;;;3.42;;
52744;SDS011;38637;49.984;20.426;2022-12-29T06:00:25;6.93;;;4.13;;
52744;SDS011;38637;49.984;20.426;2022-12-29T06:02:50;4.40;;;3.07;;
52744;SDS011;38637;49.984;20.426;2022-12-29T06:05:15;3.83;;;3.43;;
52744;SDS011;38637;49.984;20.426;2022-12-29T06:07:41;4.60;;;2.80;;
52744;SDS011;38637;49.984;20.426;2022-12-29T06:10:07;4.27;;;2.47;;
52744;SDS011;38637;49.984;20.426;2022-12-29T06:12:33;3.65;;;2.25;;
52744;SDS011;38637;49.984;20.426;2022-12-29T06:14:58;6.17;;;4.40;;
52744;SDS011;38637;49.984;20.426;2022-12-29T06:17:23;49.53;;;17.57;;
52744;SDS011;38637;49.984;20.426;2022-12-29T06:19:49;42.67;;;18.03;;
52744;SDS011;38637;49.984;20.426;2022-12-29T06:22:14;41.90;;;17.13;;
52744;SDS011;38637;49.984;20.426;2022-12-29T06:24:39;23.40;;;8.87;;
52744;SDS011;38637;49.984;20.426;2022-12-29T06:27:05;46.20;;;13.87;;
52744;SDS011;38637;49.984;20.426;2022-12-29T06:29:30;22.60;;;9.00;;
52744;SDS011;38637;49.984;20.426;2022-12-29T06:31:56;7.00;;;3.30;;
52744;SDS011;38637;49.984;20.426;2022-12-29T06:34:23;6.05;;;3.20;;
52744;SDS011;38637;49.984;20.426;2022-12-29T06:36:49;5.82;;;3.13;;
52744;SDS011;38637;49.984;20.426;2022-12-29T06:39:15;11.60;;;4.40;;
52744;SDS011;38637;49.984;20.426;2022-12-29T06:41:40;8.60;;;4.23;;
52744;SDS011;38637;49.984;20.426;2022-12-29T06:44:05;10.30;;;4.73;;
52744;SDS011;38637;49.984;20.426;2022-12-29T06:46:31;8.57;;;4.47;;
52744;SDS011;38637;49.984;20.426;2022-12-29T06:48:56;10.50;;;4.77;;
52744;SDS011;38637;49.984;20.426;2022-12-29T06:51:22;7.73;;;3.83;;
52744;SDS011;38637;49.984;20.426;2022-12-29T06:53:47;5.47;;;3.90;;
52744;SDS011;38637;49.984;20.426;2022-12-29T06:56:12;8.43;;;4.50;;
52744;SDS011;38637;49.984;20.426;2022-12-29T06:58:38;6.37;;;4.13;;
52744;SDS011;38637;49.984;20.426;2022-12-29T07:01:03;6.37;;;4.17;;
52744;SDS011;38637;49.984;20.426;2022-12-29T07:03:29;11.13;;;4.57;;
52744;SDS011;38637;49.984;20.426;2022-12-29T07:05:54;8.10;;;4.37;;
52744;SDS011;38637;49.984;20.426;2022-12-29T07:08:20;7.53;;;4.33;;
52744;SDS011;38637;49.984;20.426;2022-12-29T07:10:45;7.87;;;4.30;;
52744;SDS011;38637;49.984;20.426;2022-12-29T07:13:11;11.48;;;4.93;;
52744;SDS011;38637;49.984;20.426;2022-12-29T07:15:37;36.33;;;20.83;;
52744;SDS011;38637;49.984;20.426;2022-12-29T07:18:02;30.77;;;17.53;;
52744;SDS011;38637;49.984;20.426;2022-12-29T07:20:28;23.85;;;13.70;;
52744;SDS011;38637;49.984;20.426;2022-12-29T07:22:54;24.07;;;16.77;;
52744;SDS011;38637;49.984;20.426;2022-12-29T07:25:20;28.23;;;15.40;;
52744;SDS011;38637;49.984;20.426;2022-12-29T07:27:45;27.57;;;12.57;;
52744;SDS011;38637;49.984;20.426;2022-12-29T07:30:11;10.57;;;7.00;;
52744;SDS011;38637;49.984;20.426;2022-12-29T07:32:36;8.93;;;5.77;;
52744;SDS011;38637;49.984;20.426;2022-12-29T07:35:02;9.33;;;5.57;;
52744;SDS011;38637;49.984;20.426;2022-12-29T07:37:28;13.15;;;5.72;;
52744;SDS011;38637;49.984;20.426;2022-12-29T07:39:54;15.03;;;4.93;;
52744;SDS011;38637;49.984;20.426;2022-12-29T07:42:19;21.20;;;6.80;;
52744;SDS011;38637;49.984;20.426;2022-12-29T07:44:44;9.40;;;4.27;;
52744;SDS011;38637;49.984;20.426;2022-12-29T07:47:10;17.63;;;7.00;;
52744;SDS011;38637;49.984;20.426;2022-12-29T07:49:35;14.40;;;6.30;;
52744;SDS011;38637;49.984;20.426;2022-12-29T07:52:00;12.23;;;3.73;;
52744;SDS011;38637;49.984;20.426;2022-12-29T07:54:26;10.03;;;5.10;;
52744;SDS011;38637;49.984;20.426;2022-12-29T07:56:51;13.70;;;6.43;;
52744;SDS011;38637;49.984;20.426;2022-12-29T07:59:17;17.73;;;9.43;;
52744;SDS011;38637;49.984;20.426;2022-12-29T08:01:42;9.43;;;5.13;;
52744;SDS011;38637;49.984;20.426;2022-12-29T08:04:07;10.80;;;4.10;;
52744;SDS011;38637;49.984;20.426;2022-12-29T08:06:33;16.63;;;4.20;;
52744;SDS011;38637;49.984;20.426;2022-12-29T08:08:58;8.20;;;4.13;;
52744;SDS011;38637;49.984;20.426;2022-12-29T08:11:25;8.48;;;4.32;;
52744;SDS011;38637;49.984;20.426;2022-12-29T08:13:50;9.57;;;3.10;;
52744;SDS011;38637;49.984;20.426;2022-12-29T08:16:15;9.07;;;3.90;;
52744;SDS011;38637;49.984;20.426;2022-12-29T08:18:41;9.33;;;5.33;;
52744;SDS011;38637;49.984;20.426;2022-12-29T08:21:06;5.80;;;3.17;;
52744;SDS011;38637;49.984;20.426;2022-12-29T08:23:31;17.63;;;5.93;;
52744;SDS011;38637;49.984;20.426;2022-12-29T08:25:59;22.08;;;9.57;;
52744;SDS011;38637;49.984;20.426;2022-12-29T08:28:25;14.52;;;7.50;;
52744;SDS011;38637;49.984;20.426;2022-12-29T08:30:50;9.63;;;3.83;;
52744;SDS011;38637;49.984;20.426;2022-12-29T08:33:16;3.23;;;2.40;;
52744;SDS011;38637;49.984;20.426;2022-12-29T08:35:41;2.37;;;2.17;;
52744;SDS011;38637;49.984;20.426;2022-12-29T08:38:06;4.17;;;2.20;;
52744;SDS011;38637;49.984;20.426;2022-12-29T08:40:32;4.77;;;2.80;;
52744;SDS011;38637;49.984;20.426;2022-12-29T08:42:57;6.33;;;3.03;;
52744;SDS011;38637;49.984;20.426;2022-12-29T08:45:22;3.90;;;2.27;;
52744;SDS011;38637;49.984;20.426;2022-12-29T08:47:47;6.73;;;4.27;;
52744;SDS011;38637;49.984;20.426;2022-12-29T08:50:13;4.90;;;3.23;;
52744;SDS011;38637;49.984;20.426;2022-12-29T08:52:38;13.20;;;7.27;;
52744;SDS011;38637;49.984;20.426;2022-12-29T08:55:03;5.73;;;4.47;;
52744;SDS011;38637;49.984;20.426;2022-12-29T08:57:29;22.07;;;8.87;;
52744;SDS011;38637;49.984;20.426;2022-12-29T08:59:54;23.77;;;10.73;;
52744;SDS011;38637;49.984;20.426;2022-12-29T09:02:20;7.20;;;4.13;;
52744;SDS011;38637;49.984;20.426;2022-12-29T09:04:47;5.28;;;3.22;;
52744;SDS011;38637;49.984;20.426;2022-12-29T09:07:12;3.67;;;3.07;;
52744;SDS011;38637;49.984;20.426;2022-12-29T09:09:37;9.30;;;2.67;;
52744;SDS011;38637;49.984;20.426;2022-12-29T09:12:03;3.90;;;2.57;;
52744;SDS011;38637;49.984;20.426;2022-12-29T09:14:28;12.70;;;4.93;;
52744;SDS011;38637;49.984;20.426;2022-12-29T09:16:54;4.60;;;3.27;;
52744;SDS011;38637;49.984;20.426;2022-12-29T09:19:38;7.00;;;3.13;;
52744;SDS011;38637;49.984;20.426;2022-12-29T09:22:03;5.03;;;3.40;;
52744;SDS011;38637;49.984;20.426;2022-12-29T09:24:29;4.33;;;2.93;;
52744;SDS011;38637;49.984;20.426;2022-12-29T09:26:54;3.57;;;3.20;;
52744;SDS011;38637;49.984;20.426;2022-12-29T09:29:19;5.80;;;3.30;;
52744;SDS011;38637;49.984;20.426;2022-12-29T09:31:45;4.63;;;3.93;;
52744;SDS011;38637;49.984;20.426;2022-12-29T09:34:10;6.13;;;3.47;;
52744;SDS011;38637;49.984;20.426;2022-12-29T09:36:35;17.97;;;7.37;;
52744;SDS011;38637;49.984;20.426;2022-12-29T09:39:01;27.67;;;10.20;;
52744;SDS011;38637;49.984;20.426;2022-12-29T09:41:26;20.30;;;8.83;;
52744;SDS011;38637;49.984;20.426;2022-12-29T09:44:17;22.73;;;9.07;;
52744;SDS011;38637;49.984;20.426;2022-12-29T09:46:51;20.38;;;6.55;;
52744;SDS011;38637;49.984;20.426;2022-12-29T09:49:30;29.70;;;11.98;;
52744;SDS011;38637;49.984;20.426;2022-12-29T09:52:15;11.05;;;6.43;;
52744;SDS011;38637;49.984;20.426;2022-12-29T09:54:46;16.03;;;8.40;;
52744;SDS011;38637;49.984;20.426;2022-12-29T09:57:22;16.52;;;6.03;;
52744;SDS011;38637;49.984;20.426;2022-12-29T09:59:50;9.45;;;4.75;;
52744;SDS011;38637;49.984;20.426;2022-12-29T10:02:23;10.85;;;4.18;;
52744;SDS011;38637;49.984;20.426;2022-12-29T10:04:55;8.23;;;4.82;;
52744;SDS011;38637;49.984;20.426;2022-12-29T10:10:03;6.38;;;2.80;;
52744;SDS011;38637;49.984;20.426;2022-12-29T10:15:38;10.27;;;2.60;;
52744;SDS011;38637;49.984;20.426;2022-12-29T10:18:26;5.22;;;2.58;;
52744;SDS011;38637;49.984;20.426;2022-12-29T10:20:57;3.95;;;2.75;;
52744;SDS011;38637;49.984;20.426;2022-12-29T10:23:31;4.35;;;3.03;;
52744;SDS011;38637;49.984;20.426;2022-12-29T10:26:02;4.88;;;2.97;;
52744;SDS011;38637;49.984;20.426;2022-12-29T10:28:43;7.72;;;3.25;;
52744;SDS011;38637;49.984;20.426;2022-12-29T10:31:16;12.07;;;3.60;;
52744;SDS011;38637;49.984;20.426;2022-12-29T10:33:46;4.80;;;3.75;;
52744;SDS011;38637;49.984;20.426;2022-12-29T10:36:18;3.45;;;2.55;;
52744;SDS011;38637;49.984;20.426;2022-12-29T10:41:46;5.75;;;3.53;;
52744;SDS011;38637;49.984;20.426;2022-12-29T10:44:29;11.57;;;4.22;;
52744;SDS011;38637;49.984;20.426;2022-12-29T10:46:59;12.73;;;4.32;;
52744;SDS011;38637;49.984;20.426;2022-12-29T10:49:29;5.32;;;3.20;;
52744;SDS011;38637;49.984;20.426;2022-12-29T10:51:58;11.27;;;4.43;;
52744;SDS011;38637;49.984;20.426;2022-12-29T10:54:46;6.40;;;3.35;;
52744;SDS011;38637;49.984;20.426;2022-12-29T10:57:36;7.78;;;3.08;;
52744;SDS011;38637;49.984;20.426;2022-12-29T11:05:15;8.73;;;2.72;;
52744;SDS011;38637;49.984;20.426;2022-12-29T11:07:46;4.05;;;2.63;;
52744;SDS011;38637;49.984;20.426;2022-12-29T11:13:03;5.20;;;3.58;;
52744;SDS011;38637;49.984;20.426;2022-12-29T11:15:53;15.13;;;5.90;;
52744;SDS011;38637;49.984;20.426;2022-12-29T11:18:20;8.90;;;4.55;;
52744;SDS011;38637;49.984;20.426;2022-12-29T11:20:48;5.63;;;3.42;;
52744;SDS011;38637;49.984;20.426;2022-12-29T11:23:26;6.32;;;3.50;;
52744;SDS011;38637;49.984;20.426;2022-12-29T11:26:13;6.80;;;3.88;;
52744;SDS011;38637;49.984;20.426;2022-12-29T11:28:40;5.35;;;3.30;;
52744;SDS011;38637;49.984;20.426;2022-12-29T11:31:07;7.18;;;3.25;;
52744;SDS011;38637;49.984;20.426;2022-12-29T11:33:34;7.82;;;3.95;;
52744;SDS011;38637;49.984;20.426;2022-12-29T11:36:10;6.63;;;3.08;;
52744;SDS011;38637;49.984;20.426;2022-12-29T11:38:51;3.75;;;2.90;;
52744;SDS011;38637;49.984;20.426;2022-12-29T11:41:20;7.03;;;3.80;;
52744;SDS011;38637;49.984;20.426;2022-12-29T11:43:48;5.50;;;3.90;;
52744;SDS011;38637;49.984;20.426;2022-12-29T11:46:15;6.55;;;4.68;;
52744;SDS011;38637;49.984;20.426;2022-12-29T11:48:43;9.35;;;4.07;;
52744;SDS011;38637;49.984;20.426;2022-12-29T11:51:09;6.80;;;4.00;;
52744;SDS011;38637;49.984;20.426;2022-12-29T11:53:42;7.07;;;3.80;;
52744;SDS011;38637;49.984;20.426;2022-12-29T11:56:16;6.68;;;4.03;;
52744;SDS011;38637;49.984;20.426;2022-12-29T11:58:43;9.45;;;4.25;;
52744;SDS011;38637;49.984;20.426;2022-12-29T12:04:06;9.18;;;5.05;;
52744;SDS011;38637;49.984;20.426;2022-12-29T12:06:41;10.35;;;4.88;;
52744;SDS011;38637;49.984;20.426;2022-12-29T12:09:19;7.15;;;4.18;;
52744;SDS011;38637;49.984;20.426;2022-12-29T12:11:51;9.15;;;4.03;;
52744;SDS011;38637;49.984;20.426;2022-12-29T12:14:23;15.95;;;5.10;;
52744;SDS011;38637;49.984;20.426;2022-12-29T12:16:59;18.23;;;6.55;;
52744;SDS011;38637;49.984;20.426;2022-12-29T12:19:33;14.85;;;5.32;;
52744;SDS011;38637;49.984;20.426;2022-12-29T12:22:13;29.17;;;9.75;;
52744;SDS011;38637;49.984;20.426;2022-12-29T12:25:02;16.27;;;6.07;;
52744;SDS011;38637;49.984;20.426;2022-12-29T12:30:15;28.83;;;10.43;;
52744;SDS011;38637;49.984;20.426;2022-12-29T12:32:53;40.13;;;14.73;;
52744;SDS011;38637;49.984;20.426;2022-12-29T12:38:20;13.77;;;5.18;;
52744;SDS011;38637;49.984;20.426;2022-12-29T12:43:37;19.55;;;5.97;;
52744;SDS011;38637;49.984;20.426;2022-12-29T12:57:39;5.28;;;3.17;;
52744;SDS011;38637;49.984;20.426;2022-12-29T13:00:13;5.30;;;2.42;;
52744;SDS011;38637;49.984;20.426;2022-12-29T13:02:50;6.28;;;2.97;;
52744;SDS011;38637;49.984;20.426;2022-12-29T13:13:17;4.55;;;3.05;;
52744;SDS011;38637;49.984;20.426;2022-12-29T13:16:04;8.20;;;3.78;;
52744;SDS011;38637;49.984;20.426;2022-12-29T13:21:09;9.75;;;3.80;;
52744;SDS011;38637;49.984;20.426;2022-12-29T13:26:32;6.40;;;4.50;;
52744;SDS011;38637;49.984;20.426;2022-12-29T13:29:12;6.32;;;4.05;;
52744;SDS011;38637;49.984;20.426;2022-12-29T13:34:46;7.43;;;5.43;;
52744;SDS011;38637;49.984;20.426;2022-12-29T13:37:18;6.67;;;4.53;;
52744;SDS011;38637;49.984;20.426;2022-12-29T13:39:54;6.60;;;4.82;;
52744;SDS011;38637;49.984;20.426;2022-12-29T13:42:22;7.85;;;4.25;;
52744;SDS011;38637;49.984;20.426;2022-12-29T13:44:54;6.63;;;4.90;;
52744;SDS011;38637;49.984;20.426;2022-12-29T13:50:02;6.85;;;4.60;;
52744;SDS011;38637;49.984;20.426;2022-12-29T13:55:48;9.48;;;4.88;;
52744;SDS011;38637;49.984;20.426;2022-12-29T13:58:15;8.88;;;4.90;;
52744;SDS011;38637;49.984;20.426;2022-12-29T14:01:04;6.13;;;4.72;;
52744;SDS011;38637;49.984;20.426;2022-12-29T14:03:46;8.65;;;4.40;;
52744;SDS011;38637;49.984;20.426;2022-12-29T14:08:44;9.32;;;5.65;;
52744;SDS011;38637;49.984;20.426;2022-12-29T14:11:10;8.13;;;5.53;;
52744;SDS011;38637;49.984;20.426;2022-12-29T14:13:40;8.70;;;5.28;;
52744;SDS011;38637;49.984;20.426;2022-12-29T14:16:24;14.30;;;7.35;;
52744;SDS011;38637;49.984;20.426;2022-12-29T14:18:52;10.07;;;7.03;;
52744;SDS011;38637;49.984;20.426;2022-12-29T14:21:20;11.95;;;7.10;;
52744;SDS011;38637;49.984;20.426;2022-12-29T14:23:48;17.75;;;7.97;;
52744;SDS011;38637;49.984;20.426;2022-12-29T14:28:56;13.98;;;9.30;;
52744;SDS011;38637;49.984;20.426;2022-12-29T14:31:39;16.40;;;8.85;;
52744;SDS011;38637;49.984;20.426;2022-12-29T14:36:34;23.30;;;9.67;;
52744;SDS011;38637;49.984;20.426;2022-12-29T14:39:01;12.05;;;7.50;;
52744;SDS011;38637;49.984;20.426;2022-12-29T14:41:30;17.92;;;11.93;;
52744;SDS011;38637;49.984;20.426;2022-12-29T14:49:32;18.20;;;10.73;;
52744;SDS011;38637;49.984;20.426;2022-12-29T14:52:16;13.35;;;8.90;;
52744;SDS011;38637;49.984;20.426;2022-12-29T14:54:45;10.63;;;8.35;;
52744;SDS011;38637;49.984;20.426;2022-12-29T14:57:18;9.57;;;5.07;;
52744;SDS011;38637;49.984;20.426;2022-12-29T14:59:47;12.75;;;7.05;;
52744;SDS011;38637;49.984;20.426;2022-12-29T15:02:19;12.15;;;6.78;;
52744;SDS011;38637;49.984;20.426;2022-12-29T15:04:47;16.42;;;8.82;;
52744;SDS011;38637;49.984;20.426;2022-12-29T15:07:13;30.05;;;12.95;;
52744;SDS011;38637;49.984;20.426;2022-12-29T15:09:41;30.42;;;10.73;;
52744;SDS011;38637;49.984;20.426;2022-12-29T15:12:20;20.45;;;10.77;;
52744;SDS011;38637;49.984;20.426;2022-12-29T15:14:52;32.03;;;14.60;;
52744;SDS011;38637;49.984;20.426;2022-12-29T15:17:27;26.73;;;11.52;;
52744;SDS011;38637;49.984;20.426;2022-12-29T15:19:54;50.38;;;15.00;;
52744;SDS011;38637;49.984;20.426;2022-12-29T15:24:46;19.13;;;8.25;;
52744;SDS011;38637;49.984;20.426;2022-12-29T15:27:15;19.52;;;9.65;;
52744;SDS011;38637;49.984;20.426;2022-12-29T15:29:44;10.98;;;5.30;;
52744;SDS011;38637;49.984;20.426;2022-12-29T15:32:18;7.80;;;4.72;;
52744;SDS011;38637;49.984;20.426;2022-12-29T15:34:46;7.03;;;4.45;;
52744;SDS011;38637;49.984;20.426;2022-12-29T15:37:21;8.32;;;4.63;;
52744;SDS011;38637;49.984;20.426;2022-12-29T15:39:58;10.02;;;4.90;;
52744;SDS011;38637;49.984;20.426;2022-12-29T15:45:28;9.18;;;4.45;;
52744;SDS011;38637;49.984;20.426;2022-12-29T15:47:57;7.30;;;5.13;;
52744;SDS011;38637;49.984;20.426;2022-12-29T15:50:26;10.30;;;5.00;;
52744;SDS011;38637;49.984;20.426;2022-12-29T15:52:53;16.75;;;6.88;;
52744;SDS011;38637;49.984;20.426;2022-12-29T15:55:30;20.90;;;8.73;;
52744;SDS011;38637;49.984;20.426;2022-12-29T15:57:59;23.67;;;10.07;;
52744;SDS011;38637;49.984;20.426;2022-12-29T16:00:33;25.10;;;10.52;;
52744;SDS011;38637;49.984;20.426;2022-12-29T16:03:02;11.45;;;6.43;;
52744;SDS011;38637;49.984;20.426;2022-12-29T16:05:37;20.63;;;6.50;;
52744;SDS011;38637;49.984;20.426;2022-12-29T16:08:15;17.83;;;8.40;;
52744;SDS011;38637;49.984;20.426;2022-12-29T16:10:49;28.83;;;19.27;;
52744;SDS011;38637;49.984;20.426;2022-12-29T16:13:31;29.38;;;18.33;;
52744;SDS011;38637;49.984;20.426;2022-12-29T16:16:00;25.60;;;17.58;;
52744;SDS011;38637;49.984;20.426;2022-12-29T16:18:34;32.85;;;19.95;;
52744;SDS011;38637;49.984;20.426;2022-12-29T16:21:03;30.75;;;19.20;;
52744;SDS011;38637;49.984;20.426;2022-12-29T16:23:36;41.10;;;17.02;;
52744;SDS011;38637;49.984;20.426;2022-12-29T16:26:02;15.93;;;10.03;;
52744;SDS011;38637;49.984;20.426;2022-12-29T16:28:36;19.67;;;9.93;;